Pagrindinis puslapis
METAR-TAF:

METAR-TAF

Oro uostai :

Dušanbė, Tadžikija

platuma: 38-33N, ilguma: 068-47E, Aukštis: 803 m

Dabartinis oras

Ataskaita buvo paskelbta 18 minutes, ne 06:00 UTC
Vėjas 8 kt iš Vakarų/Pietvakarių
Temperatūra 8°C
Drėgmė 76%
Slėgis 1018 hPa
Matomumas: 6000 m
Mažai debesys ne aukštis 6600 ft
Išsisklaidę debesys ne aukštis 10000 ft

METAR: UTDD 120600Z 25004MPS 6000 FEW066 SCT100 08/04 Q1018 R09/CLRD// NOSIG RMK QFE695/0926

Laikas: 11:18 (06:18 UTC)

Prognozė

Ataskaita buvo paskelbta 3 valandos ir 18 minutes, ne 03:00 UTC
Prognozė galioja nuo 12 metu 04 UTC su 12 metu 16 UTC
Vėjas 4 kt nuo kintamojo kryptimis
Matomumas: 3100 m
Išsisklaidę debesys ne aukštis 4000 ft, Liūtiniai kamuoliniai debesys.
Su prošvaistėmis ne aukštis 9000 ft
rūkana, dūmai
Laikinai
nuo 12 metu 04 UTC su 12 metu 06 UTC
Matomumas: 1500 m
rūkana, dūmai
Tapsmas
nuo 12 metu 06 UTC su 12 metu 08 UTC
Matomumas: 6000 m

TAF: UTDD 120300Z 1204/1216 VRB02MPS 3100 BR FU SCT040CB BKN090 TEMPO 1204/1206 1500 BR FU BECMG 1206/1208 6000 NSW

Orai ataskaitas ir orų prognozės (METAR, TAF).

turimą stotys yra geltonos ir raudonos taškus žemėlapyje.

Perkelti pele per norėdami pamatyti stoties vardą.

Tada spustelėkite, norėdami matyti oro stebėjimo ir prognozės.

Norėdami pakeisti žemėlapį: spustelėkite ant žalios mygtukų su juodo kryžiaus žemyn,; žalią mygtuką su brūkšneliu, jei norite nutolinti; arba žalių rodyklių gretimoms žemėlapius.


METAR-TAF: